createdAt,value
2019-02-28T00:01:06.662Z,23.07
2019-02-28T00:03:36.217Z,22.23
2019-02-28T00:06:05.771Z,18.13
2019-02-28T00:08:35.270Z,19.03
2019-02-28T00:11:05.929Z,18.97
2019-02-28T00:13:35.458Z,20.97
2019-02-28T00:16:05.087Z,16.63
2019-02-28T00:18:34.690Z,27.60
2019-02-28T00:21:06.922Z,18.07
2019-02-28T00:23:35.344Z,19.32
2019-02-28T00:26:04.949Z,18.67
2019-02-28T00:28:34.560Z,16.23
2019-02-28T00:31:04.184Z,18.33
2019-02-28T00:33:33.718Z,20.25
2019-02-28T00:36:03.298Z,18.93
2019-02-28T00:38:32.849Z,22.30
2019-02-28T00:41:02.536Z,19.35
2019-02-28T00:43:31.705Z,18.50
2019-02-28T00:46:02.353Z,19.85
2019-02-28T00:48:31.653Z,19.23
2019-02-28T00:51:01.327Z,18.82
2019-02-28T00:53:30.952Z,19.23
2019-02-28T00:56:00.674Z,18.00
2019-02-28T00:58:29.902Z,14.73
2019-02-28T01:00:59.469Z,21.87
2019-02-28T01:03:28.998Z,19.55
2019-02-28T01:05:59.255Z,15.55
2019-02-28T01:08:28.703Z,17.73
2019-02-28T01:10:58.440Z,17.43
2019-02-28T01:13:28.202Z,14.80
2019-02-28T01:15:57.790Z,16.33
2019-02-28T01:18:27.073Z,26.67
2019-02-28T01:20:56.660Z,10.97
2019-02-28T01:23:26.104Z,19.48
2019-02-28T01:25:56.592Z,17.87
2019-02-28T01:28:27.066Z,18.90
2019-02-28T01:30:57.172Z,20.03
2019-02-28T01:33:26.521Z,18.85
2019-02-28T01:35:56.139Z,18.07
2019-02-28T01:38:25.593Z,17.83
2019-02-28T01:40:55.088Z,19.83
2019-02-28T01:43:28.363Z,20.70
2019-02-28T01:45:55.755Z,22.80
2019-02-28T01:48:25.202Z,17.23
2019-02-28T01:50:54.707Z,16.90
2019-02-28T01:53:24.211Z,24.30
2019-02-28T01:55:53.739Z,26.80
2019-02-28T01:58:23.391Z,18.97
2019-02-28T02:00:53.665Z,28.80
2019-02-28T02:03:24.061Z,16.87
2019-02-28T02:05:53.696Z,19.93
2019-02-28T02:08:23.309Z,20.37
2019-02-28T02:10:55.848Z,21.83
2019-02-28T02:13:24.120Z,22.57
2019-02-28T02:15:53.639Z,19.70
2019-02-28T02:18:23.135Z,23.17
2019-02-28T02:20:52.602Z,17.20
2019-02-28T02:23:22.151Z,21.00
2019-02-28T02:25:51.612Z,17.77
2019-02-28T02:28:21.217Z,15.90
2019-02-28T02:30:52.144Z,19.93
2019-02-28T02:33:21.811Z,19.20
2019-02-28T02:35:51.369Z,21.50
2019-02-28T02:38:20.910Z,18.17
2019-02-28T02:40:50.622Z,19.00
2019-02-28T02:43:21.898Z,19.73
2019-02-28T02:45:51.431Z,21.63
2019-02-28T02:48:20.992Z,14.57
2019-02-28T02:50:50.532Z,15.40
2019-02-28T02:53:20.104Z,18.92
2019-02-28T02:55:49.675Z,18.07
2019-02-28T02:58:19.135Z,20.10
2019-02-28T03:00:51.254Z,17.47
2019-02-28T03:03:20.227Z,15.90
2019-02-28T03:05:50.545Z,17.60
2019-02-28T03:08:21.696Z,24.20
2019-02-28T03:10:53.009Z,20.80
2019-02-28T03:13:22.744Z,20.17
2019-02-28T03:15:52.215Z,19.43
2019-02-28T03:18:21.943Z,20.20
2019-02-28T03:20:51.452Z,18.17
2019-02-28T03:23:21.070Z,16.27
2019-02-28T03:25:50.442Z,19.07
2019-02-28T03:28:20.001Z,24.98
2019-02-28T03:30:49.657Z,19.33
2019-02-28T03:33:27.497Z,23.27
2019-02-28T03:35:50.122Z,19.57
2019-02-28T03:38:19.678Z,21.23
2019-02-28T03:40:49.230Z,22.00
2019-02-28T03:43:18.757Z,21.77
2019-02-28T03:45:48.269Z,21.17
2019-02-28T03:48:17.753Z,22.65
2019-02-28T03:50:47.381Z,23.80
2019-02-28T03:53:19.957Z,24.80
2019-02-28T03:55:48.228Z,20.93
2019-02-28T03:58:17.771Z,16.73
2019-02-28T04:00:47.441Z,25.88
2019-02-28T04:03:17.043Z,18.87
2019-02-28T04:05:46.632Z,20.68
2019-02-28T04:08:16.166Z,20.47
2019-02-28T04:10:45.662Z,23.53
2019-02-28T04:13:19.138Z,17.43
2019-02-28T04:16:01.477Z,15.95
2019-02-28T04:18:17.750Z,20.80
2019-02-28T04:20:47.232Z,17.17
2019-02-28T04:23:16.696Z,23.30
2019-02-28T04:25:46.182Z,17.23
2019-02-28T04:28:18.653Z,23.30
2019-02-28T04:30:46.958Z,19.27
2019-02-28T04:33:16.423Z,22.60
2019-02-28T04:35:45.962Z,17.93
2019-02-28T04:38:20.443Z,26.07
2019-02-28T04:41:07.842Z,20.88
2019-02-28T04:43:37.278Z,17.37
2019-02-28T04:46:06.735Z,19.30
2019-02-28T04:48:36.857Z,19.35
2019-02-28T04:51:06.613Z,22.27
2019-02-28T04:53:36.168Z,22.10
2019-02-28T04:56:11.027Z,20.92
2019-02-28T04:58:36.893Z,20.70
2019-02-28T05:01:09.125Z,21.90
2019-02-28T05:03:37.473Z,17.20
2019-02-28T05:06:07.032Z,17.48
2019-02-28T05:08:38.874Z,22.13
2019-02-28T05:11:07.641Z,25.03
2019-02-28T05:13:37.119Z,18.87
2019-02-28T05:16:06.079Z,24.03
2019-02-28T05:18:35.532Z,22.42
2019-02-28T05:21:04.991Z,18.63
2019-02-28T05:23:36.160Z,23.50
2019-02-28T05:26:05.633Z,28.73
2019-02-28T05:28:40.173Z,19.30
2019-02-28T05:31:06.995Z,33.83
2019-02-28T05:33:38.329Z,20.13
2019-02-28T05:36:07.899Z,29.50
2019-02-28T05:38:37.405Z,23.87
2019-02-28T05:41:07.322Z,23.90
2019-02-28T05:43:36.948Z,26.03
2019-02-28T05:46:06.489Z,18.93
2019-02-28T05:48:38.750Z,21.95
2019-02-28T05:51:07.666Z,20.57
2019-02-28T05:53:37.104Z,17.73
2019-02-28T05:56:06.987Z,20.17
2019-02-28T05:58:36.421Z,24.30
2019-02-28T06:01:08.720Z,25.30
2019-02-28T06:03:37.268Z,20.17
2019-02-28T06:06:08.048Z,24.97
2019-02-28T06:08:39.227Z,29.72
2019-02-28T06:11:28.168Z,19.50
2019-02-28T06:13:57.701Z,19.87
2019-02-28T06:16:27.297Z,23.70
2019-02-28T06:18:56.488Z,30.97
2019-02-28T06:21:25.669Z,22.30
2019-02-28T06:23:54.980Z,21.75
2019-02-28T06:26:24.297Z,26.10
2019-02-28T06:28:53.308Z,25.77
2019-02-28T06:33:56.551Z,25.80
2019-02-28T06:36:29.183Z,25.35
2019-02-28T06:38:57.074Z,23.23
2019-02-28T06:41:26.559Z,24.70
2019-02-28T06:43:56.099Z,19.83
2019-02-28T06:46:25.628Z,23.55
2019-02-28T06:49:01.126Z,22.40
2019-02-28T06:51:26.069Z,23.03
2019-02-28T06:53:55.763Z,25.73
2019-02-28T06:56:25.214Z,21.75
2019-02-28T06:58:54.949Z,28.67
2019-02-28T07:01:24.550Z,25.23
2019-02-28T07:03:53.938Z,19.33
2019-02-28T07:06:23.518Z,24.13
2019-02-28T07:08:53.084Z,26.70
2019-02-28T07:11:22.632Z,18.80
2019-02-28T07:13:52.202Z,21.67
2019-02-28T07:16:21.833Z,21.40
2019-02-28T07:18:53.828Z,20.83
2019-02-28T07:21:24.475Z,21.90
2019-02-28T07:23:54.067Z,21.57
2019-02-28T07:26:23.621Z,20.72
2019-02-28T07:28:53.145Z,21.27
2019-02-28T07:31:24.713Z,21.20
2019-02-28T07:33:53.932Z,21.43
2019-02-28T07:36:23.434Z,23.37
2019-02-28T07:38:52.969Z,24.92
2019-02-28T07:41:26.473Z,21.10
2019-02-28T07:43:53.738Z,27.10
2019-02-28T07:46:24.711Z,18.20
2019-02-28T07:48:54.240Z,26.53
2019-02-28T07:51:26.197Z,24.70
2019-02-28T07:53:56.035Z,21.10
2019-02-28T07:56:25.525Z,22.53
2019-02-28T07:58:55.187Z,21.77
2019-02-28T08:01:27.761Z,22.48
2019-02-28T08:03:56.135Z,23.32
2019-02-28T08:06:25.902Z,59.33
2019-02-28T08:08:55.548Z,28.00
2019-02-28T08:11:25.734Z,26.52
2019-02-28T08:13:55.596Z,25.33
2019-02-28T08:16:25.056Z,20.43
2019-02-28T08:18:54.668Z,23.70
2019-02-28T08:21:24.414Z,32.00
2019-02-28T08:23:53.947Z,21.70
2019-02-28T08:26:22.838Z,25.50
2019-02-28T08:28:52.461Z,25.93
2019-02-28T08:31:21.953Z,20.17
2019-02-28T08:33:51.640Z,21.40
2019-02-28T08:36:21.566Z,26.20
2019-02-28T08:38:51.233Z,22.80
2019-02-28T08:41:22.537Z,23.85
2019-02-28T08:43:51.982Z,26.23
2019-02-28T08:46:21.311Z,26.07
2019-02-28T08:48:50.921Z,23.33
2019-02-28T08:51:20.474Z,24.77
2019-02-28T08:53:51.342Z,32.50
2019-02-28T08:56:21.368Z,25.05
2019-02-28T08:59:12.177Z,27.70
2019-02-28T09:02:02.212Z,28.50
2019-02-28T09:04:40.789Z,35.55
2019-02-28T09:07:02.888Z,31.33
2019-02-28T09:09:34.390Z,28.57
2019-02-28T09:12:03.946Z,30.60
2019-02-28T09:14:33.400Z,31.87
2019-02-28T09:17:02.983Z,27.80
2019-02-28T09:19:35.994Z,28.87
2019-02-28T09:22:04.375Z,28.87
2019-02-28T09:24:33.865Z,31.23
2019-02-28T09:27:04.103Z,30.87
2019-02-28T09:29:34.500Z,35.03
2019-02-28T09:32:06.283Z,30.97
2019-02-28T09:34:35.708Z,28.57
2019-02-28T09:37:05.347Z,35.48
2019-02-28T09:39:34.940Z,28.45
2019-02-28T09:42:04.767Z,31.37
2019-02-28T09:44:34.252Z,32.97
2019-02-28T09:47:03.852Z,39.95
2019-02-28T09:49:33.287Z,36.38
2019-02-28T09:52:03.145Z,34.83
2019-02-28T09:54:34.026Z,36.40
2019-02-28T09:57:03.614Z,42.10
2019-02-28T09:59:37.384Z,39.57
2019-02-28T10:02:08.077Z,37.03
2019-02-28T10:04:35.685Z,37.07
2019-02-28T10:07:05.274Z,40.70
2019-02-28T10:09:34.732Z,40.90
2019-02-28T10:12:07.840Z,38.80
2019-02-28T10:14:36.816Z,37.10
2019-02-28T10:17:06.391Z,38.53
2019-02-28T10:19:44.774Z,40.55
2019-02-28T10:22:07.116Z,36.73
2019-02-28T10:24:36.613Z,37.93
2019-02-28T10:27:08.200Z,40.17
2019-02-28T10:29:38.506Z,42.67
2019-02-28T10:32:09.693Z,35.30
2019-02-28T10:34:39.264Z,46.17
2019-02-28T10:37:09.255Z,34.90
2019-02-28T10:39:40.222Z,39.23
2019-02-28T10:42:10.070Z,46.33
2019-02-28T10:44:39.568Z,39.93
2019-02-28T10:47:09.561Z,41.50
2019-02-28T10:49:39.058Z,45.03
2019-02-28T10:52:08.697Z,44.40
2019-02-28T10:54:38.282Z,48.70
2019-02-28T10:57:09.733Z,39.10
2019-02-28T10:59:39.263Z,40.03
2019-02-28T11:02:08.976Z,44.53
2019-02-28T11:04:42.805Z,43.50
2019-02-28T11:07:09.994Z,42.77
2019-02-28T11:09:39.701Z,39.10
2019-02-28T11:12:09.592Z,43.10
2019-02-28T11:14:39.426Z,55.87
2019-02-28T11:17:13.688Z,45.60
2019-02-28T11:19:40.976Z,43.40
2019-02-28T11:22:10.639Z,42.00
2019-02-28T11:24:40.238Z,44.13
2019-02-28T11:27:09.971Z,41.30
2019-02-28T11:29:39.543Z,42.23
2019-02-28T11:32:09.476Z,54.20
2019-02-28T11:34:39.074Z,51.33
2019-02-28T11:37:09.910Z,42.13
2019-02-28T11:39:39.497Z,40.20
2019-02-28T11:42:09.432Z,40.20
2019-02-28T11:44:39.075Z,44.53
2019-02-28T11:47:11.214Z,42.10
2019-02-28T11:49:40.021Z,38.20
2019-02-28T11:52:10.116Z,47.10
2019-02-28T11:54:39.815Z,41.67
2019-02-28T11:57:09.841Z,40.85
2019-02-28T11:59:39.507Z,42.57
2019-02-28T12:02:09.491Z,41.77
2019-02-28T12:04:59.745Z,42.98
2019-02-28T12:07:34.722Z,39.40
2019-02-28T12:10:02.116Z,46.53
2019-02-28T12:12:31.733Z,52.93
2019-02-28T12:15:02.696Z,40.80
2019-02-28T12:17:32.762Z,47.20
2019-02-28T12:20:03.883Z,46.27
2019-02-28T12:22:33.557Z,38.20
2019-02-28T12:25:04.465Z,47.45
2019-02-28T12:27:34.022Z,48.83
2019-02-28T12:30:25.145Z,41.17
2019-02-28T12:33:19.104Z,42.83
2019-02-28T12:35:46.965Z,43.83
2019-02-28T12:38:16.456Z,38.77
2019-02-28T12:40:48.534Z,40.60
2019-02-28T12:43:17.249Z,45.00
2019-02-28T12:45:47.393Z,37.27
2019-02-28T12:48:17.185Z,41.37
2019-02-28T12:50:46.721Z,39.58
2019-02-28T12:53:16.294Z,39.63
2019-02-28T12:55:45.762Z,39.73
2019-02-28T12:58:15.358Z,41.53
2019-02-28T13:00:46.210Z,41.33
2019-02-28T13:03:19.478Z,37.77
2019-02-28T13:05:49.260Z,36.90
2019-02-28T13:08:18.326Z,42.80
2019-02-28T13:10:47.756Z,37.13
2019-02-28T13:13:21.650Z,37.35
2019-02-28T13:15:49.349Z,40.23
2019-02-28T13:18:19.038Z,36.47
2019-02-28T13:20:48.590Z,37.83
2019-02-28T13:23:18.237Z,39.50
2019-02-28T13:25:47.856Z,32.37
2019-02-28T13:28:18.159Z,32.27
2019-02-28T13:30:50.143Z,41.10
2019-02-28T13:36:37.290Z,32.20
2019-02-28T13:39:31.765Z,34.83
2019-02-28T13:42:18.384Z,36.73
2019-02-28T13:44:47.899Z,36.28
2019-02-28T13:47:17.361Z,31.50
2019-02-28T13:49:49.789Z,34.87
2019-02-28T13:52:20.491Z,31.93
2019-02-28T13:54:49.405Z,39.10
2019-02-28T13:57:18.916Z,30.87
2019-02-28T13:59:48.545Z,28.90
2019-02-28T14:02:18.128Z,35.97
2019-02-28T14:04:47.773Z,30.43
2019-02-28T14:07:17.314Z,31.40
2019-02-28T14:09:46.954Z,38.43
2019-02-28T14:15:28.866Z,26.57
2019-02-28T14:17:58.411Z,32.93
2019-02-28T14:20:28.483Z,27.50
2019-02-28T14:22:57.921Z,31.77
2019-02-28T14:25:27.466Z,31.30
2019-02-28T14:28:17.832Z,35.80
2019-02-28T14:30:47.487Z,34.17
2019-02-28T14:33:19.484Z,31.47
2019-02-28T14:35:48.240Z,31.43
2019-02-28T14:38:17.523Z,33.30
2019-02-28T14:40:49.654Z,39.73
2019-02-28T14:43:19.683Z,29.97
2019-02-28T14:46:29.483Z,26.15
2019-02-28T14:52:14.376Z,31.17
2019-02-28T14:54:44.009Z,26.77
2019-02-28T14:57:16.576Z,31.60
2019-02-28T14:59:44.633Z,32.03
2019-02-28T15:02:14.363Z,28.50
2019-02-28T15:04:45.711Z,27.02
2019-02-28T15:07:15.117Z,36.93
2019-02-28T15:09:44.600Z,29.37
2019-02-28T15:15:29.534Z,29.50
2019-02-28T15:17:59.139Z,31.67
2019-02-28T15:20:32.096Z,29.60
2019-02-28T15:23:00.058Z,32.93
2019-02-28T15:25:30.750Z,33.53
2019-02-28T15:28:00.467Z,40.17
2019-02-28T15:30:33.980Z,36.38
2019-02-28T15:33:03.660Z,37.23
2019-02-28T15:35:34.962Z,44.70
2019-02-28T15:38:05.770Z,36.08
2019-02-28T15:40:40.438Z,39.80
2019-02-28T15:43:10.338Z,40.60
2019-02-28T15:45:39.919Z,48.42
2019-02-28T15:48:09.607Z,43.00
2019-02-28T15:50:39.079Z,39.70
2019-02-28T15:53:11.256Z,39.67
2019-02-28T15:55:39.966Z,37.65
2019-02-28T15:58:09.986Z,41.92
2019-02-28T16:00:39.614Z,41.20
2019-02-28T16:03:09.264Z,43.80
2019-02-28T16:05:42.731Z,39.38
2019-02-28T16:08:10.819Z,41.30
2019-02-28T16:10:40.467Z,44.67
2019-02-28T16:13:10.065Z,48.00
2019-02-28T16:15:39.732Z,44.03
2019-02-28T16:18:12.056Z,38.85
2019-02-28T16:20:41.011Z,46.23
2019-02-28T16:23:10.864Z,44.03
2019-02-28T16:25:40.452Z,38.40
2019-02-28T16:28:10.309Z,46.43
2019-02-28T16:30:40.331Z,46.80
2019-02-28T16:33:10.320Z,45.83
2019-02-28T16:35:41.495Z,39.17
2019-02-28T16:38:11.310Z,38.10
2019-02-28T16:40:42.558Z,39.23
2019-02-28T16:43:12.233Z,42.40
2019-02-28T16:45:46.367Z,43.40
2019-02-28T16:48:18.921Z,52.93
2019-02-28T16:50:50.640Z,44.55
2019-02-28T16:53:19.730Z,40.77
2019-02-28T16:55:49.255Z,57.47
2019-02-28T16:58:21.993Z,49.83
2019-02-28T17:00:50.141Z,49.45
2019-02-28T17:03:19.762Z,45.67
2019-02-28T17:05:49.227Z,51.40
2019-02-28T17:11:36.041Z,68.47
2019-02-28T17:14:10.213Z,62.43
2019-02-28T17:16:39.865Z,58.60
2019-02-28T17:19:09.696Z,59.98
2019-02-28T17:21:39.271Z,55.93
2019-02-28T17:24:12.165Z,57.27
2019-02-28T17:26:41.655Z,51.50
2019-02-28T17:29:12.971Z,54.60
2019-02-28T17:31:44.462Z,47.55
2019-02-28T17:34:16.548Z,50.47
2019-02-28T17:36:47.702Z,35.35
2019-02-28T17:39:17.980Z,35.80
2019-02-28T17:41:47.884Z,30.03
2019-02-28T17:44:19.795Z,27.63
2019-02-28T17:46:52.134Z,18.67
2019-02-28T17:49:27.389Z,16.20
2019-02-28T17:52:17.774Z,13.90
2019-02-28T17:54:50.488Z,12.93
2019-02-28T17:57:25.834Z,14.78
2019-02-28T17:59:58.464Z,17.57
2019-02-28T18:02:30.396Z,12.50
2019-02-28T18:05:03.861Z,11.17
2019-02-28T18:07:36.004Z,10.13
2019-02-28T18:10:08.712Z,7.20
2019-02-28T18:12:44.310Z,6.77
2019-02-28T18:15:15.581Z,8.47
2019-02-28T18:17:48.290Z,7.70
2019-02-28T18:20:21.432Z,11.40
2019-02-28T18:22:55.001Z,11.50
2019-02-28T18:25:39.517Z,8.43
2019-02-28T18:28:12.147Z,14.43
2019-02-28T18:30:46.363Z,18.00
2019-02-28T18:33:15.929Z,20.80
2019-02-28T18:35:45.230Z,15.93
2019-02-28T18:38:14.805Z,21.83
2019-02-28T18:40:44.371Z,12.40
2019-02-28T18:43:13.925Z,13.63
2019-02-28T18:45:43.443Z,17.33
2019-02-28T18:48:14.562Z,15.50
2019-02-28T18:50:51.305Z,18.83
2019-02-28T18:53:20.960Z,18.97
2019-02-28T18:55:50.565Z,10.43
2019-02-28T18:58:19.940Z,27.33
2019-02-28T19:00:49.715Z,18.23
2019-02-28T19:03:19.266Z,12.17
2019-02-28T19:05:48.850Z,10.40
2019-02-28T19:08:18.420Z,12.53
2019-02-28T19:10:48.033Z,11.20
2019-02-28T19:13:17.564Z,12.10
2019-02-28T19:15:47.338Z,8.93
2019-02-28T19:18:16.979Z,12.90
2019-02-28T19:20:46.582Z,15.17
2019-02-28T19:23:16.215Z,11.47
2019-02-28T19:25:48.772Z,13.37
2019-02-28T19:28:18.948Z,16.97
2019-02-28T19:30:50.471Z,12.90
2019-02-28T19:33:20.174Z,15.53
2019-02-28T19:35:52.841Z,14.23
2019-02-28T19:38:26.138Z,16.27
2019-02-28T19:40:56.478Z,14.07
2019-02-28T19:43:26.437Z,13.80
2019-02-28T19:45:56.773Z,16.67
2019-02-28T19:48:27.732Z,16.13
2019-02-28T19:50:57.306Z,13.00
2019-02-28T19:53:26.908Z,17.90
2019-02-28T19:55:56.857Z,14.27
2019-02-28T19:58:26.434Z,18.17
2019-02-28T20:00:56.029Z,23.73
2019-02-28T20:03:25.568Z,18.00
2019-02-28T20:05:55.238Z,16.27
2019-02-28T20:08:24.755Z,19.67
2019-02-28T20:10:54.423Z,19.87
2019-02-28T20:13:24.073Z,22.50
2019-02-28T20:15:54.058Z,19.50
2019-02-28T20:18:23.590Z,20.20
2019-02-28T20:20:53.166Z,16.57
2019-02-28T20:23:24.803Z,18.03
2019-02-28T20:25:54.355Z,15.85
2019-02-28T20:28:23.900Z,19.67
2019-02-28T20:30:53.477Z,19.10
2019-02-28T20:33:23.114Z,20.10
2019-02-28T20:35:53.105Z,17.00
2019-02-28T20:38:22.910Z,18.33
2019-02-28T20:40:52.928Z,18.63
2019-02-28T20:43:22.936Z,20.70
2019-02-28T20:45:52.666Z,21.10
2019-02-28T20:48:26.411Z,20.80
2019-02-28T20:50:56.576Z,20.23
2019-02-28T20:53:26.629Z,22.20
2019-02-28T20:55:56.361Z,18.15
2019-02-28T20:58:26.178Z,28.27
2019-02-28T21:00:56.411Z,22.10
2019-02-28T21:03:26.139Z,19.47
2019-02-28T21:05:55.914Z,24.47
2019-02-28T21:08:25.517Z,21.27
2019-02-28T21:10:55.249Z,23.30
2019-02-28T21:13:24.881Z,26.37
2019-02-28T21:15:54.975Z,22.30
2019-02-28T21:18:24.317Z,20.80
2019-02-28T21:20:53.880Z,24.47
2019-02-28T21:23:23.359Z,23.70
2019-02-28T21:25:53.034Z,22.55
2019-02-28T21:28:22.580Z,24.20
2019-02-28T21:30:52.149Z,27.85
2019-02-28T21:33:24.674Z,19.30
2019-02-28T21:35:53.979Z,25.70
2019-02-28T21:38:27.690Z,21.48
2019-02-28T21:40:57.323Z,27.97
2019-02-28T21:43:26.811Z,21.93
2019-02-28T21:45:56.285Z,29.70
2019-02-28T21:48:25.858Z,26.97
2019-02-28T21:50:55.350Z,25.00
2019-02-28T21:53:25.004Z,20.70
2019-02-28T21:55:54.621Z,22.27
2019-02-28T21:58:24.184Z,21.37
2019-02-28T22:00:53.733Z,23.02
2019-02-28T22:03:23.215Z,22.73
2019-02-28T22:05:52.774Z,20.80
2019-02-28T22:08:22.338Z,23.80
2019-02-28T22:10:51.954Z,24.67
2019-02-28T22:13:21.680Z,25.53
2019-02-28T22:15:51.279Z,28.23
2019-02-28T22:18:20.845Z,22.93
2019-02-28T22:20:50.478Z,23.37
2019-02-28T22:23:20.069Z,23.53
2019-02-28T22:25:49.643Z,23.40
2019-02-28T22:28:19.132Z,24.27
2019-02-28T22:30:49.992Z,23.73
2019-02-28T22:33:21.641Z,24.40
2019-02-28T22:35:52.879Z,18.43
2019-02-28T22:38:22.393Z,20.32
2019-02-28T22:40:51.859Z,26.50
2019-02-28T22:43:21.401Z,30.07
2019-02-28T22:45:50.940Z,21.77
2019-02-28T22:48:20.727Z,28.90
2019-02-28T22:50:50.279Z,23.07
2019-02-28T22:53:19.834Z,19.30
2019-02-28T22:55:49.414Z,20.17
2019-02-28T22:58:19.034Z,19.87
2019-02-28T23:00:53.325Z,33.10
2019-02-28T23:03:22.868Z,22.80
2019-02-28T23:05:52.339Z,20.83
2019-02-28T23:08:21.977Z,17.97
2019-02-28T23:10:51.899Z,22.77
2019-02-28T23:13:21.501Z,24.87
2019-02-28T23:15:51.063Z,17.60
2019-02-28T23:18:20.927Z,18.30
2019-02-28T23:20:50.547Z,19.57
2019-02-28T23:23:20.127Z,17.43
2019-02-28T23:25:49.796Z,20.43
2019-02-28T23:28:22.686Z,19.27
2019-02-28T23:30:55.803Z,22.00
2019-02-28T23:33:25.341Z,18.25
2019-02-28T23:35:54.720Z,18.30
2019-02-28T23:38:24.224Z,18.87
2019-02-28T23:40:56.460Z,12.40
2019-02-28T23:43:26.141Z,18.73
2019-02-28T23:45:55.737Z,16.50
2019-02-28T23:48:25.200Z,19.43
2019-02-28T23:50:54.790Z,18.70
2019-02-28T23:53:24.333Z,15.65
2019-02-28T23:55:54.005Z,14.77
2019-02-28T23:58:23.617Z,15.87
